Flugplatz Fehrbellin (EDBF)

Hier findest Du alle Informationen zum Flugplatz Fehrbellin (EDBF).

Informationen für Piloten zum Flugplatz Fehrbellin

Hier findest Du alle relevanten Informationen, die Du als Pilot benötigst, um Fehrbellin anzufliegen.

Flugplatz: Fehrbellin ICAO-Code: EDBF
Frequenz Turm: 122,500 Mhz GAFOR Gebiet: 14
Frequenz Ground: 122,500 Mhz Mogas: nein
Platzrunde: S 1000 ft Landegebühr: -
Platzhöhe: - Sunrise: 04:48 Uhr UTC
Pisten: 11/29 - 735 m x , ASPH Sunset: 17:38 Uhr UTC

Flugwetter am Flugplatz Fehrbellin

Die METAR Information stammen aus EDDT (43.58 km entfernt).

METAR Code:
2017/03/24 11:50
EDDT 241150Z VRB04KT CAVOK 12/M03 Q1031 NOSIG

Flugschulen am Flugplatz Fehrbellin

Am Flugplatz Fehrbellin gibt es eine Flugschule.

Flugsport-Berlin Ultraleichtflug GmbH Dreiachs Motorschirm Trike

Benachbarte Flugplätze und Flugschulen

Es gibt 12 weitere Flugplätze in einem Umkreis von 50 km um den Flugplatz Fehrbellin.

Jetzt anmelden

Passwort vergessen

Umfrage Archiv

In welcher Höhe sollte das max. Leergewicht begrenzt werden, wenn ULs 600 kg MTOW hätten?

max. 350,0 kg
48.9 %
keine Begrenzung
15.1 %
max. 375,0 kg
12.1 %
max. 325,0 kg
10.2 %
max. 400,0 kg
8.4 %
max. 300,0 kg
3.3 %
max. 275,0 kg
1.9 %
Stimmen: 628 | Diskussion (46)
Anzeige: Roland Aircraft
Statistik Alle Mitglieder

Aktuell sind 28 Besucher online, davon 2 Mitglieder und 26 Gäste.


Mitglieder online:
Chris_EDNC  mbr 

Anzeige: VFR Sprechfunk Simulator


Anzeige: Pocket FMS